Time;durP1;ratioP1;P1;durP2;ratioP2;P2;SDS_P1;SDS_P2;PMS_P1;PMS_P2;Temp;Humidity;BMP_temperature;BMP_pressure;BME280_temperature;BME280_humidity;BME280_pressure;Samples;Min_cycle;Max_cycle;Signal;HPM_P1;HPM_P2
2024/02/08 00:02:07;;;;;;;0.10;0.10;;;;;;;;;;4993277;28;20042;-85
2024/02/08 00:04:35;;;;;;;0.10;0.10;;;;;;;;;;4995610;28;20508;-84
2024/02/08 00:07:01;;;;;;;0.10;0.10;;;;;;;;;;4995294;28;20046;-84
2024/02/08 00:09:27;;;;;;;0.10;0.10;;;;;;;;;;5011816;28;20046;-85
2024/02/08 00:11:53;;;;;;;0.10;0.10;;;;;;;;;;4995137;28;20060;-84
2024/02/08 00:14:19;;;;;;;0.10;0.10;;;;;;;;;;4995419;28;20067;-85
2024/02/08 00:16:45;;;;;;;0.10;0.10;;;;;;;;;;5011797;28;20034;-85
2024/02/08 00:19:15;;;;;;;0.10;0.10;;;;;;;;;;4995560;28;20457;-85
2024/02/08 00:21:41;;;;;;;0.13;0.13;;;;;;;;;;4994749;28;20038;-86
2024/02/08 00:24:07;;;;;;;0.10;0.10;;;;;;;;;;5011606;28;20125;-85
2024/02/08 00:26:33;;;;;;;0.10;0.10;;;;;;;;;;4995170;28;20133;-86
2024/02/08 00:29:00;;;;;;;0.10;0.10;;;;;;;;;;4995222;28;20042;-85
2024/02/08 00:31:26;;;;;;;0.10;0.10;;;;;;;;;;4994800;28;20052;-86
2024/02/08 00:33:52;;;;;;;0.10;0.10;;;;;;;;;;4995108;28;20038;-85
2024/02/08 00:36:18;;;;;;;0.10;0.10;;;;;;;;;;4995422;28;20042;-85
2024/02/08 00:38:44;;;;;;;0.10;0.10;;;;;;;;;;4995198;28;20044;-85
2024/02/08 00:41:11;;;;;;;0.10;0.10;;;;;;;;;;5011537;28;20049;-85
2024/02/08 00:43:39;;;;;;;0.10;0.10;;;;;;;;;;4995322;28;20038;-86
2024/02/08 00:46:06;;;;;;;0.50;0.50;;;;;;;;;;4995196;28;20092;-86
2024/02/08 00:48:32;;;;;;;0.10;0.10;;;;;;;;;;5011375;28;20057;-85
2024/02/08 00:50:59;;;;;;;0.10;0.10;;;;;;;;;;4994972;28;20041;-85
2024/02/08 00:53:25;;;;;;;0.10;0.10;;;;;;;;;;4994821;28;20083;-85
2024/02/08 00:55:51;;;;;;;0.10;0.10;;;;;;;;;;4994790;28;20100;-85
2024/02/08 00:58:17;;;;;;;0.10;0.10;;;;;;;;;;4995109;28;20093;-85
2024/02/08 01:00:43;;;;;;;0.10;0.10;;;;;;;;;;5011085;28;20046;-84
2024/02/08 01:03:10;;;;;;;0.10;0.10;;;;;;;;;;5011271;28;20104;-85
2024/02/08 01:05:36;;;;;;;0.10;0.10;;;;;;;;;;4994638;28;20052;-86
2024/02/08 01:08:02;;;;;;;0.10;0.10;;;;;;;;;;5011022;28;20050;-85
2024/02/08 01:10:28;;;;;;;0.10;0.10;;;;;;;;;;5011198;28;20037;-84
2024/02/08 01:12:54;;;;;;;0.10;0.10;;;;;;;;;;5011141;28;20091;-85
2024/02/08 01:15:24;;;;;;;0.10;0.10;;;;;;;;;;4995162;28;20053;-85
2024/02/08 01:17:51;;;;;;;0.10;0.10;;;;;;;;;;4994760;28;20125;-84
2024/02/08 01:20:22;;;;;;;0.10;0.10;;;;;;;;;;4994947;28;20471;-84
2024/02/08 01:22:49;;;;;;;0.10;0.10;;;;;;;;;;5010423;28;20077;-86
2024/02/08 01:25:15;;;;;;;0.10;0.10;;;;;;;;;;5010842;28;20046;-84
2024/02/08 01:27:43;;;;;;;0.15;0.15;;;;;;;;;;4994739;28;20034;-84
2024/02/08 01:30:10;;;;;;;0.10;0.10;;;;;;;;;;4994055;28;20042;-84
2024/02/08 01:32:37;;;;;;;0.20;0.20;;;;;;;;;;4994608;28;20041;-85
2024/02/08 01:35:03;;;;;;;0.10;0.10;;;;;;;;;;4994659;28;20048;-85
2024/02/08 01:37:29;;;;;;;0.10;0.10;;;;;;;;;;4994419;28;20077;-84
2024/02/08 01:39:56;;;;;;;0.10;0.10;;;;;;;;;;5010937;28;20053;-85
2024/02/08 01:42:22;;;;;;;0.10;0.10;;;;;;;;;;4994473;28;20042;-84
2024/02/08 01:44:48;;;;;;;0.10;0.10;;;;;;;;;;5010827;28;20129;-86
2024/02/08 01:47:17;;;;;;;0.10;0.10;;;;;;;;;;4994326;28;20101;-84
2024/02/08 01:49:46;;;;;;;0.10;0.10;;;;;;;;;;4993730;28;20048;-85
2024/02/08 01:52:12;;;;;;;0.15;0.15;;;;;;;;;;4993809;28;20037;-85
2024/02/08 01:54:43;;;;;;;0.10;0.10;;;;;;;;;;4994271;28;20045;-85
2024/02/08 01:57:10;;;;;;;0.10;0.10;;;;;;;;;;4993806;28;20120;-85
2024/02/08 01:59:36;;;;;;;0.10;0.10;;;;;;;;;;5010531;28;20038;-85
2024/02/08 02:02:02;;;;;;;0.10;0.10;;;;;;;;;;5010605;28;20448;-85
2024/02/08 02:04:31;;;;;;;0.10;0.10;;;;;;;;;;4994049;28;20046;-85
2024/02/08 02:07:00;;;;;;;0.10;0.10;;;;;;;;;;4993730;28;20481;-84
2024/02/08 02:09:30;;;;;;;0.10;0.10;;;;;;;;;;4994015;28;20054;-85
2024/02/08 02:12:16;;;;;;;0.10;0.10;;;;;;;;;;4996865;28;20046;-85
2024/02/08 02:14:44;;;;;;;0.10;0.10;;;;;;;;;;4997775;28;20049;-85
2024/02/08 02:17:19;;;;;;;1.95;0.40;;;;;;;;;;4997365;28;20095;-85
2024/02/08 02:19:47;;;;;;;0.10;0.10;;;;;;;;;;4997134;28;20042;-85
2024/02/08 02:22:13;;;;;;;0.10;0.10;;;;;;;;;;4997087;28;20564;-86
2024/02/08 02:24:40;;;;;;;0.10;0.10;;;;;;;;;;5013611;28;20129;-85
2024/02/08 02:27:06;;;;;;;0.10;0.10;;;;;;;;;;4997280;28;20045;-85
2024/02/08 02:29:33;;;;;;;0.20;0.20;;;;;;;;;;4997206;28;20488;-85
2024/02/08 02:31:59;;;;;;;0.10;0.10;;;;;;;;;;4997054;28;20089;-84
2024/02/08 02:34:26;;;;;;;0.10;0.10;;;;;;;;;;4997428;28;20037;-85
2024/02/08 02:36:53;;;;;;;0.10;0.10;;;;;;;;;;5013788;28;20408;-85
2024/02/08 02:39:25;;;;;;;0.10;0.10;;;;;;;;;;4997341;28;20456;-86
2024/02/08 02:41:53;;;;;;;0.10;0.10;;;;;;;;;;4996211;28;20049;-87
2024/02/08 02:44:19;;;;;;;0.10;0.10;;;;;;;;;;4997241;28;20053;-85
2024/02/08 02:46:45;;;;;;;0.10;0.10;;;;;;;;;;4996900;28;20045;-85
2024/02/08 02:49:11;;;;;;;0.10;0.10;;;;;;;;;;4996879;28;20049;-85
2024/02/08 02:51:37;;;;;;;0.10;0.10;;;;;;;;;;4996802;28;20042;-85
2024/02/08 02:54:04;;;;;;;0.10;0.10;;;;;;;;;;5013166;28;20041;-84
2024/02/08 02:56:31;;;;;;;0.10;0.10;;;;;;;;;;4996848;28;20088;-84
2024/02/08 02:58:57;;;;;;;0.10;0.10;;;;;;;;;;4997228;28;20405;-84
2024/02/08 03:01:26;;;;;;;0.10;0.10;;;;;;;;;;4997147;28;20112;-85
2024/02/08 03:03:53;;;;;;;0.20;0.20;;;;;;;;;;4996123;28;20046;-85
2024/02/08 03:06:19;;;;;;;0.10;0.10;;;;;;;;;;4996812;28;20050;-85
2024/02/08 03:08:45;;;;;;;0.10;0.10;;;;;;;;;;4996640;28;20097;-85
2024/02/08 03:11:11;;;;;;;0.10;0.10;;;;;;;;;;4996268;28;20046;-85
2024/02/08 03:13:45;;;;;;;0.10;0.10;;;;;;;;;;5012752;28;20092;-85
2024/02/08 03:16:14;;;;;;;0.10;0.10;;;;;;;;;;5012776;28;20041;-85
2024/02/08 03:18:45;;;;;;;0.10;0.10;;;;;;;;;;4996012;28;20144;-85
2024/02/08 03:21:21;;;;;;;0.10;0.10;;;;;;;;;;4995800;28;20038;-85
2024/02/08 03:23:47;;;;;;;0.10;0.10;;;;;;;;;;5011446;28;20551;-83
2024/02/08 03:26:16;;;;;;;0.10;0.10;;;;;;;;;;4996307;28;20042;-85
2024/02/08 03:28:43;;;;;;;0.20;0.20;;;;;;;;;;4996628;28;20038;-85
2024/02/08 03:31:09;;;;;;;0.10;0.10;;;;;;;;;;5012486;28;20054;-85
2024/02/08 03:33:37;;;;;;;0.10;0.10;;;;;;;;;;4996225;28;20042;-85
2024/02/08 03:36:06;;;;;;;0.10;0.10;;;;;;;;;;4995677;28;20038;-86
2024/02/08 03:38:33;;;;;;;0.10;0.10;;;;;;;;;;4995624;28;20045;-85
2024/02/08 03:40:59;;;;;;;0.10;0.10;;;;;;;;;;4996021;28;20054;-85
2024/02/08 03:43:26;;;;;;;0.10;0.10;;;;;;;;;;4996092;28;20041;-85
2024/02/08 03:45:57;;;;;;;0.10;0.10;;;;;;;;;;4996122;28;20124;-85
2024/02/08 03:48:23;;;;;;;0.13;0.10;;;;;;;;;;5011740;28;20041;-85
2024/02/08 03:50:52;;;;;;;0.10;0.10;;;;;;;;;;5012012;28;20073;-85
2024/02/08 03:53:20;;;;;;;0.10;0.10;;;;;;;;;;4995682;28;20042;-85
2024/02/08 03:55:51;;;;;;;0.10;0.10;;;;;;;;;;4995425;28;20125;-84
2024/02/08 03:58:18;;;;;;;0.28;0.28;;;;;;;;;;4995501;28;20037;-85
2024/02/08 04:00:46;;;;;;;0.10;0.10;;;;;;;;;;4995709;28;20042;-85
2024/02/08 04:03:14;;;;;;;0.10;0.10;;;;;;;;;;4995002;28;20108;-84
2024/02/08 04:54:37;;;;;;;0.10;0.10;;;;;;;;;;5008686;28;20049;-85
2024/02/08 04:57:03;;;;;;;0.10;0.10;;;;;;;;;;5011216;28;20042;-85
2024/02/08 04:59:30;;;;;;;0.10;0.10;;;;;;;;;;4994784;28;20041;-86
2024/02/08 05:01:56;;;;;;;0.10;0.10;;;;;;;;;;5011371;28;20052;-86
2024/02/08 05:04:22;;;;;;;0.10;0.10;;;;;;;;;;4994591;28;20065;-86
2024/02/08 05:06:53;;;;;;;0.10;0.10;;;;;;;;;;5010952;28;20056;-85
2024/02/08 05:09:21;;;;;;;0.10;0.10;;;;;;;;;;5010565;28;20500;-85
2024/02/08 05:11:52;;;;;;;0.10;0.10;;;;;;;;;;5010443;28;20448;-85
2024/02/08 05:14:22;;;;;;;0.10;0.10;;;;;;;;;;4995101;28;20038;-85
2024/02/08 05:16:54;;;;;;;0.10;0.10;;;;;;;;;;5010438;28;20540;-85
2024/02/08 05:19:23;;;;;;;0.10;0.10;;;;;;;;;;4995017;28;20129;-85
2024/02/08 05:21:59;;;;;;;0.10;0.10;;;;;;;;;;4994656;28;20393;-85
2024/02/08 05:24:30;;;;;;;0.10;0.10;;;;;;;;;;5010655;28;20516;-85
2024/02/08 05:26:56;;;;;;;0.10;0.10;;;;;;;;;;4995003;28;20042;-85
2024/02/08 05:29:22;;;;;;;0.10;0.10;;;;;;;;;;4994417;28;20038;-85
2024/02/08 05:31:49;;;;;;;0.10;0.10;;;;;;;;;;4994448;28;20081;-85
2024/02/08 05:34:15;;;;;;;0.10;0.10;;;;;;;;;;4994482;28;20045;-85
2024/02/08 05:36:41;;;;;;;0.10;0.10;;;;;;;;;;5010681;28;20489;-86
2024/02/08 05:39:08;;;;;;;0.10;0.10;;;;;;;;;;4994448;28;20378;-85
2024/02/08 05:41:34;;;;;;;0.10;0.10;;;;;;;;;;4994454;28;20048;-85
2024/02/08 05:44:05;;;;;;;0.10;0.10;;;;;;;;;;4994780;28;20402;-85
2024/02/08 05:46:37;;;;;;;0.10;0.10;;;;;;;;;;4996588;28;20048;-86
2024/02/08 05:49:13;;;;;;;;;;;;;;;;;;5014231;28;20056;-86
2024/02/08 05:51:46;;;;;;;0.10;0.10;;;;;;;;;;5014463;28;19921;-85
2024/02/08 05:54:22;;;;;;;0.10;0.10;;;;;;;;;;4997783;28;20038;-85
2024/02/08 05:56:49;;;;;;;0.10;0.10;;;;;;;;;;4997235;28;20184;-86
2024/02/08 05:59:17;;;;;;;0.10;0.10;;;;;;;;;;4998211;28;20048;-86
2024/02/08 06:01:50;;;;;;;0.10;0.10;;;;;;;;;;4997320;28;20052;-85
2024/02/08 06:04:22;;;;;;;0.10;0.10;;;;;;;;;;4997275;28;20149;-85
2024/02/08 06:06:53;;;;;;;0.20;0.20;;;;;;;;;;4997199;28;20046;-86
2024/02/08 06:12:16;;;;;;;0.10;0.10;;;;;;;;;;5014196;28;20046;-86
2024/02/08 06:14:46;;;;;;;0.10;0.10;;;;;;;;;;4998046;28;20042;-85
2024/02/08 06:17:13;;;;;;;0.10;0.10;;;;;;;;;;4997706;28;20460;-85
2024/02/08 06:19:50;;;;;;;0.10;0.10;;;;;;;;;;5013943;28;20045;-85
2024/02/08 06:22:20;;;;;;;0.10;0.10;;;;;;;;;;4996009;28;20045;-85
2024/02/08 06:25:08;;;;;;;0.10;0.10;;;;;;;;;;4997241;28;20555;-85
2024/02/08 06:27:36;;;;;;;0.10;0.10;;;;;;;;;;4995957;28;20037;-85
2024/02/08 06:30:08;;;;;;;0.10;0.10;;;;;;;;;;4997293;28;20073;-84
2024/02/08 06:32:43;;;;;;;0.10;0.10;;;;;;;;;;5012898;28;20052;-86
2024/02/08 06:35:11;;;;;;;0.10;0.10;;;;;;;;;;5012297;28;20473;-85
2024/02/08 06:37:44;;;;;;;0.10;0.10;;;;;;;;;;4997016;28;20042;-86
2024/02/08 06:40:17;;;;;;;;;;;;;;;;;;4996764;28;20037;-85
2024/02/08 06:45:24;;;;;;;0.10;0.10;;;;;;;;;;5011637;28;20052;-85
2024/02/08 07:37:29;;;;;;;0.10;0.10;;;;;;;;;;5009951;28;20073;-86
2024/02/08 07:40:01;;;;;;;0.10;0.10;;;;;;;;;;4996187;28;20477;-85
2024/02/08 07:42:41;;;;;;;0.10;0.10;;;;;;;;;;5011574;28;20046;-86
2024/02/08 07:45:14;;;;;;;0.10;0.10;;;;;;;;;;4994506;28;20088;-86
2024/02/08 07:47:40;;;;;;;0.10;0.10;;;;;;;;;;4995933;28;20073;-86
2024/02/08 07:50:09;;;;;;;0.10;0.10;;;;;;;;;;5004211;28;20486;-86
2024/02/08 07:53:19;;;;;;;0.10;0.10;;;;;;;;;;4979585;28;20061;-85
2024/02/08 07:57:59;;;;;;;0.10;0.10;;;;;;;;;;4991925;28;20471;-84
2024/02/08 08:00:41;;;;;;;0.10;0.10;;;;;;;;;;4991879;28;20401;-88
2024/02/08 08:03:08;;;;;;;0.20;0.20;;;;;;;;;;4970978;28;20172;-86
2024/02/08 08:05:44;;;;;;;0.10;0.10;;;;;;;;;;4989065;28;20047;-86
2024/02/08 08:08:28;;;;;;;0.10;0.10;;;;;;;;;;4972247;28;20565;-84
2024/02/08 08:11:04;;;;;;;0.20;0.20;;;;;;;;;;4988629;28;20130;-86
2024/02/08 08:18:59;;;;;;;0.10;0.10;;;;;;;;;;4972905;28;20049;-86
2024/02/08 08:21:55;;;;;;;0.10;0.10;;;;;;;;;;4987579;28;20057;-86
2024/02/08 08:24:25;;;;;;;0.10;0.10;;;;;;;;;;4973831;28;20502;-84
2024/02/08 08:27:06;;;;;;;0.10;0.10;;;;;;;;;;4961617;28;20042;-86
2024/02/08 08:29:42;;;;;;;1.08;1.08;;;;;;;;;;4961945;28;20045;-84
2024/02/08 08:37:46;;;;;;;0.10;0.10;;;;;;;;;;5008481;28;20049;-84
2024/02/08 08:40:23;;;;;;;0.10;0.10;;;;;;;;;;4988472;28;20372;-84
2024/02/08 08:42:50;;;;;;;0.10;0.10;;;;;;;;;;4988679;28;20053;-83
2024/02/08 08:45:19;;;;;;;0.10;0.10;;;;;;;;;;4988399;28;20050;-84
2024/02/08 08:48:00;;;;;;;0.10;0.10;;;;;;;;;;4972698;28;20386;-85
2024/02/08 08:50:31;;;;;;;0.20;0.20;;;;;;;;;;4991109;28;20038;-84
2024/02/08 08:53:19;;;;;;;0.20;0.20;;;;;;;;;;4976202;28;20046;-84
2024/02/08 08:55:49;;;;;;;0.20;0.20;;;;;;;;;;4977934;28;20046;-84
2024/02/08 08:58:15;;;;;;;0.10;0.10;;;;;;;;;;4992924;28;20371;-84
2024/02/08 09:00:58;;;;;;;0.30;0.30;;;;;;;;;;4975524;28;20038;-86
2024/02/08 09:03:28;;;;;;;0.17;0.17;;;;;;;;;;4984604;28;20061;-85
2024/02/08 09:05:57;;;;;;;0.20;0.20;;;;;;;;;;4978885;28;20046;-85
2024/02/08 09:08:41;;;;;;;0.40;0.22;;;;;;;;;;4979173;28;20046;-84
2024/02/08 09:11:12;;;;;;;0.10;0.10;;;;;;;;;;4994502;28;20050;-83
2024/02/08 09:13:38;;;;;;;0.10;0.10;;;;;;;;;;4979607;28;20042;-83
2024/02/08 09:19:04;;;;;;;0.10;0.10;;;;;;;;;;4981311;28;20054;-86
2024/02/08 09:21:32;;;;;;;0.10;0.10;;;;;;;;;;4998534;28;20046;-84
2024/02/08 09:24:05;;;;;;;4.30;1.10;;;;;;;;;;4982608;28;20045;-83
2024/02/08 09:26:51;;;;;;;0.10;0.10;;;;;;;;;;4982759;28;20397;-83
2024/02/08 09:29:23;;;;;;;0.10;0.10;;;;;;;;;;5000468;28;20038;-83
2024/02/08 09:31:50;;;;;;;0.10;0.10;;;;;;;;;;4982651;28;20038;-84
2024/02/08 09:34:16;;;;;;;0.10;0.10;;;;;;;;;;4982472;28;20045;-84
2024/02/08 09:36:44;;;;;;;0.10;0.10;;;;;;;;;;4998556;28;20033;-86
2024/02/08 09:39:17;;;;;;;0.10;0.10;;;;;;;;;;4982138;28;20042;-87
2024/02/08 09:41:47;;;;;;;0.10;0.10;;;;;;;;;;4983084;28;20358;-85
2024/02/08 09:44:14;;;;;;;0.10;0.10;;;;;;;;;;4982703;28;20046;-90
2024/02/08 09:49:17;;;;;;;0.10;0.10;;;;;;;;;;4981881;28;20077;-87
2024/02/08 09:51:53;;;;;;;0.10;0.10;;;;;;;;;;4983170;28;20417;-86
2024/02/08 09:54:31;;;;;;;0.10;0.10;;;;;;;;;;4983076;28;20034;-87
2024/02/08 09:57:01;;;;;;;0.10;0.10;;;;;;;;;;4982170;28;20038;-87
2024/02/08 10:02:23;;;;;;;0.10;0.10;;;;;;;;;;4984423;28;20046;-86
2024/02/08 10:04:50;;;;;;;0.20;0.20;;;;;;;;;;4983853;28;20085;-87
2024/02/08 10:07:19;;;;;;;0.10;0.10;;;;;;;;;;4981843;28;20046;-87
2024/02/08 10:09:53;;;;;;;0.10;0.10;;;;;;;;;;4981920;28;20037;-87
2024/02/08 10:12:20;;;;;;;0.10;0.10;;;;;;;;;;4982709;28;20050;-86
2024/02/08 10:14:54;;;;;;;0.10;0.10;;;;;;;;;;4982093;28;20100;-86
2024/02/08 10:17:40;;;;;;;0.10;0.10;;;;;;;;;;4982732;28;20084;-86
2024/02/08 10:22:56;;;;;;;0.10;0.10;;;;;;;;;;4983582;28;20049;-85
2024/02/08 10:28:23;;;;;;;0.10;0.10;;;;;;;;;;4984069;28;20390;-86
2024/02/08 10:31:07;;;;;;;0.10;0.10;;;;;;;;;;4981433;28;20410;-86
2024/02/08 10:33:37;;;;;;;0.10;0.10;;;;;;;;;;4982542;28;20125;-84
2024/02/08 10:36:10;;;;;;;0.10;0.10;;;;;;;;;;4981660;28;20033;-83
2024/02/08 10:38:55;;;;;;;0.10;0.10;;;;;;;;;;4981690;28;20096;-85
2024/02/08 10:41:35;;;;;;;0.10;0.10;;;;;;;;;;4983962;28;20137;-83
2024/02/08 10:44:05;;;;;;;0.10;0.10;;;;;;;;;;4982374;28;20061;-83
2024/02/08 10:46:34;;;;;;;0.10;0.10;;;;;;;;;;4996800;28;20600;-84
2024/02/08 10:49:00;;;;;;;0.30;0.30;;;;;;;;;;5013574;28;20042;-83
2024/02/08 10:51:27;;;;;;;0.10;0.10;;;;;;;;;;4996843;28;20449;-84
2024/02/08 10:54:04;;;;;;;0.10;0.10;;;;;;;;;;5013267;28;20037;-83
2024/02/08 10:56:40;;;;;;;0.10;0.10;;;;;;;;;;4995722;28;20038;-88
2024/02/08 11:04:40;;;;;;;0.10;0.10;;;;;;;;;;5003480;28;20049;-84
2024/02/08 11:07:15;;;;;;;0.10;0.10;;;;;;;;;;4997141;28;20068;-86
2024/02/08 11:09:44;;;;;;;0.10;0.10;;;;;;;;;;4995551;28;20108;-85
2024/02/08 11:12:18;;;;;;;0.10;0.10;;;;;;;;;;4995852;28;20408;-85
2024/02/08 11:15:13;;;;;;;0.10;0.10;;;;;;;;;;4996878;28;20499;-85
2024/02/08 11:17:49;;;;;;;0.10;0.10;;;;;;;;;;4995732;28;20061;-88
2024/02/08 11:20:33;;;;;;;0.10;0.10;;;;;;;;;;4995184;28;20095;-87
2024/02/08 11:23:18;;;;;;;0.10;0.10;;;;;;;;;;4996160;28;20128;-88
2024/02/08 11:25:44;;;;;;;0.10;0.10;;;;;;;;;;4996524;28;20038;-88
2024/02/08 11:28:17;;;;;;;0.10;0.10;;;;;;;;;;5013184;28;20037;-88
2024/02/08 11:30:46;;;;;;;0.10;0.10;;;;;;;;;;5014051;28;20042;-87
2024/02/08 11:33:13;;;;;;;0.10;0.10;;;;;;;;;;4997752;28;20049;-86
2024/02/08 11:35:54;;;;;;;0.10;0.10;;;;;;;;;;4996804;28;20493;-85
2024/02/08 11:38:34;;;;;;;0.10;0.10;;;;;;;;;;4995906;28;20085;-87
2024/02/08 11:41:10;;;;;;;0.10;0.10;;;;;;;;;;5014857;28;20064;-84
2024/02/08 11:43:41;;;;;;;0.10;0.10;;;;;;;;;;4995112;28;20049;-83
2024/02/08 11:46:18;;;;;;;0.20;0.20;;;;;;;;;;4992983;28;20053;-82
2024/02/08 11:48:44;;;;;;;0.20;0.20;;;;;;;;;;4995361;28;20653;-84
2024/02/08 11:51:11;;;;;;;0.10;0.10;;;;;;;;;;4982698;28;20078;-83
2024/02/08 11:53:39;;;;;;;0.10;0.10;;;;;;;;;;4979423;28;20041;-84
2024/02/08 11:56:08;;;;;;;0.10;0.10;;;;;;;;;;4979664;28;20046;-83
2024/02/08 11:58:44;;;;;;;0.10;0.10;;;;;;;;;;4979301;28;20088;-83
2024/02/08 12:01:14;;;;;;;0.10;0.10;;;;;;;;;;4979318;28;20046;-83
2024/02/08 12:03:44;;;;;;;0.20;0.20;;;;;;;;;;4979683;28;20129;-83
2024/02/08 12:06:22;;;;;;;0.10;0.10;;;;;;;;;;5011749;28;20050;-83
2024/02/08 12:09:04;;;;;;;0.10;0.10;;;;;;;;;;4995253;28;20045;-83
2024/02/08 12:11:31;;;;;;;0.20;0.20;;;;;;;;;;4980926;28;20129;-83
2024/02/08 12:14:06;;;;;;;0.10;0.10;;;;;;;;;;4979311;28;20093;-83
2024/02/08 12:16:38;;;;;;;0.10;0.10;;;;;;;;;;4979394;28;20095;-83
2024/02/08 12:19:14;;;;;;;0.10;0.10;;;;;;;;;;4995831;28;20046;-83
2024/02/08 12:21:42;;;;;;;0.10;0.10;;;;;;;;;;4995461;28;20112;-82
2024/02/08 12:24:17;;;;;;;0.22;0.22;;;;;;;;;;4994951;28;20088;-83
2024/02/08 12:26:47;;;;;;;0.20;0.20;;;;;;;;;;4980073;28;20050;-83
2024/02/08 12:29:16;;;;;;;0.10;0.10;;;;;;;;;;4978774;28;20050;-83
2024/02/08 12:31:45;;;;;;;0.10;0.10;;;;;;;;;;4979244;28;20077;-83
2024/02/08 12:34:13;;;;;;;0.20;0.20;;;;;;;;;;4978638;28;20044;-83
2024/02/08 12:36:40;;;;;;;0.10;0.10;;;;;;;;;;4979080;28;20516;-83
2024/02/08 12:39:17;;;;;;;0.10;0.10;;;;;;;;;;4978774;28;20544;-83
2024/02/08 12:41:47;;;;;;;0.20;0.20;;;;;;;;;;4994667;28;20049;-83
2024/02/08 12:44:16;;;;;;;0.10;0.10;;;;;;;;;;4977619;28;20485;-83
2024/02/08 12:46:49;;;;;;;0.10;0.10;;;;;;;;;;4978626;28;20509;-83
2024/02/08 12:49:17;;;;;;;1.10;0.40;;;;;;;;;;4994550;28;20125;-84
2024/02/08 12:51:43;;;;;;;0.10;0.10;;;;;;;;;;4979130;28;20065;-83
2024/02/08 12:54:12;;;;;;;0.10;0.10;;;;;;;;;;4977997;28;20129;-83
2024/02/08 12:56:39;;;;;;;0.10;0.10;;;;;;;;;;4979082;28;20420;-83
2024/02/08 12:59:05;;;;;;;0.10;0.10;;;;;;;;;;4994877;28;20034;-83
2024/02/08 13:01:47;;;;;;;0.17;0.17;;;;;;;;;;4978391;28;20038;-83
2024/02/08 13:04:23;;;;;;;0.10;0.10;;;;;;;;;;4976030;28;20498;-83
2024/02/08 13:06:49;;;;;;;0.20;0.20;;;;;;;;;;4975783;28;20563;-84
2024/02/08 13:09:30;;;;;;;0.10;0.10;;;;;;;;;;4975351;28;20042;-86
2024/02/08 13:12:14;;;;;;;0.10;0.10;;;;;;;;;;4976457;28;20043;-84
2024/02/08 13:14:48;;;;;;;0.30;0.30;;;;;;;;;;4976747;28;20098;-83
2024/02/08 13:17:18;;;;;;;0.20;0.20;;;;;;;;;;4986798;28;20518;-83
2024/02/08 13:19:46;;;;;;;0.10;0.10;;;;;;;;;;4974757;28;20393;-83
2024/02/08 13:22:12;;;;;;;0.10;0.10;;;;;;;;;;4975386;28;20128;-82
2024/02/08 13:24:38;;;;;;;0.20;0.20;;;;;;;;;;4975027;28;20512;-83
2024/02/08 13:27:04;;;;;;;0.10;0.10;;;;;;;;;;4975146;28;20038;-83
2024/02/08 13:29:30;;;;;;;0.20;0.20;;;;;;;;;;4975105;28;20057;-83
2024/02/08 13:31:57;;;;;;;0.10;0.10;;;;;;;;;;4975084;28;20078;-87
2024/02/08 13:34:23;;;;;;;0.10;0.10;;;;;;;;;;4975031;28;20041;-83
2024/02/08 13:36:49;;;;;;;1.98;1.65;;;;;;;;;;4991030;28;20077;-82
2024/02/08 13:39:16;;;;;;;0.10;0.10;;;;;;;;;;4975312;28;20420;-85
2024/02/08 13:41:46;;;;;;;0.15;0.15;;;;;;;;;;4975098;28;20046;-86
2024/02/08 13:44:15;;;;;;;0.10;0.10;;;;;;;;;;4990825;28;20065;-83
2024/02/08 13:46:41;;;;;;;0.20;0.20;;;;;;;;;;4974857;28;20055;-83
2024/02/08 13:49:07;;;;;;;0.10;0.10;;;;;;;;;;4975053;28;20039;-83
2024/02/08 13:51:33;;;;;;;0.10;0.10;;;;;;;;;;4974741;28;20046;-83
2024/02/08 13:54:00;;;;;;;0.10;0.10;;;;;;;;;;4975005;28;20046;-83
2024/02/08 13:56:27;;;;;;;0.20;0.20;;;;;;;;;;4975270;28;20493;-83
2024/02/08 13:58:58;;;;;;;0.10;0.10;;;;;;;;;;4987528;28;20043;-83
2024/02/08 14:01:26;;;;;;;0.10;0.10;;;;;;;;;;4971540;28;20497;-84
2024/02/08 14:03:56;;;;;;;0.10;0.10;;;;;;;;;;4987313;28;20133;-83
2024/02/08 14:06:23;;;;;;;0.10;0.10;;;;;;;;;;4971954;28;20507;-83
2024/02/08 14:08:54;;;;;;;0.10;0.10;;;;;;;;;;4974993;28;20047;-83
2024/02/08 14:11:21;;;;;;;0.10;0.10;;;;;;;;;;4959463;28;20066;-84
2024/02/08 14:13:50;;;;;;;0.20;0.20;;;;;;;;;;4959458;28;20038;-83
2024/02/08 14:16:21;;;;;;;0.10;0.10;;;;;;;;;;4959097;28;20508;-84
2024/02/08 14:18:50;;;;;;;0.75;0.45;;;;;;;;;;4958934;28;20384;-83
2024/02/08 14:21:27;;;;;;;0.15;0.15;;;;;;;;;;4974828;28;20047;-85
2024/02/08 14:23:59;;;;;;;0.35;0.35;;;;;;;;;;4960394;28;20132;-87
2024/02/08 14:26:40;;;;;;;0.10;0.10;;;;;;;;;;4960046;28;20042;-86
2024/02/08 14:29:07;;;;;;;0.47;0.47;;;;;;;;;;4960660;28;20045;-86
2024/02/08 14:31:35;;;;;;;0.10;0.10;;;;;;;;;;4958862;28;20047;-87
2024/02/08 14:34:02;;;;;;;0.10;0.10;;;;;;;;;;4959190;28;20398;-86
2024/02/08 14:36:29;;;;;;;0.10;0.10;;;;;;;;;;4958696;28;20574;-84
2024/02/08 14:38:55;;;;;;;0.10;0.10;;;;;;;;;;4958721;28;20121;-85
2024/02/08 14:41:32;;;;;;;0.10;0.10;;;;;;;;;;4958396;28;20130;-85
2024/02/08 14:44:16;;;;;;;0.10;0.10;;;;;;;;;;4959970;28;20077;-84
2024/02/08 14:46:46;;;;;;;0.20;0.20;;;;;;;;;;4960606;28;20046;-86
2024/02/08 14:49:23;;;;;;;0.10;0.10;;;;;;;;;;4958848;28;20129;-86
2024/02/08 14:51:49;;;;;;;0.10;0.10;;;;;;;;;;4959570;28;20322;-85
2024/02/08 14:54:18;;;;;;;0.10;0.10;;;;;;;;;;4958267;28;20039;-86
2024/02/08 14:56:45;;;;;;;0.10;0.10;;;;;;;;;;4958687;28;20047;-86
2024/02/08 14:59:13;;;;;;;0.10;0.10;;;;;;;;;;4958297;28;20043;-85
2024/02/08 15:01:39;;;;;;;0.10;0.10;;;;;;;;;;4958354;28;20541;-86
2024/02/08 15:04:15;;;;;;;0.10;0.10;;;;;;;;;;4972205;28;20062;-85
2024/02/08 15:06:42;;;;;;;0.10;0.10;;;;;;;;;;4974809;28;20051;-90
2024/02/08 15:12:00;;;;;;;0.10;0.10;;;;;;;;;;4994595;28;20046;-87
2024/02/08 15:14:35;;;;;;;0.10;0.10;;;;;;;;;;5010653;28;20482;-87
2024/02/08 15:17:07;;;;;;;0.10;0.10;;;;;;;;;;5009807;28;20034;-84
2024/02/08 15:19:45;;;;;;;0.10;0.10;;;;;;;;;;5026464;28;20073;-83
2024/02/08 15:22:46;;;;;;;0.10;0.10;;;;;;;;;;5021224;28;20366;-83
2024/02/08 15:25:07;;;;;;;0.10;0.10;;;;;;;;;;5001830;28;20124;-84
2024/02/08 15:28:25;;;;;;;0.10;0.10;;;;;;;;;;4977345;28;20513;-83
2024/02/08 15:30:36;;;;;;;0.10;0.10;;;;;;;;;;4972397;28;20058;-83
2024/02/08 15:33:16;;;;;;;0.10;0.10;;;;;;;;;;4978481;28;20074;-83
2024/02/08 15:35:52;;;;;;;0.10;0.10;;;;;;;;;;4962597;28;20550;-84
2024/02/08 15:38:35;;;;;;;0.10;0.10;;;;;;;;;;4961900;28;20125;-83
2024/02/08 15:41:17;;;;;;;0.10;0.10;;;;;;;;;;4993975;28;20389;-83
2024/02/08 15:43:48;;;;;;;0.10;0.10;;;;;;;;;;5009247;28;20437;-82
2024/02/08 15:46:15;;;;;;;0.10;0.10;;;;;;;;;;5008927;28;20045;-83
2024/02/08 15:48:44;;;;;;;0.10;0.10;;;;;;;;;;5009043;28;20042;-83
2024/02/08 15:51:12;;;;;;;0.10;0.10;;;;;;;;;;5023623;28;20046;-83
2024/02/08 15:53:50;;;;;;;0.10;0.10;;;;;;;;;;5008789;28;20100;-85
2024/02/08 15:56:19;;;;;;;0.10;0.10;;;;;;;;;;5008786;28;20081;-85
2024/02/08 15:58:46;;;;;;;0.10;0.10;;;;;;;;;;4976621;28;20077;-84
2024/02/08 16:01:19;;;;;;;0.10;0.10;;;;;;;;;;4976005;28;20046;-86
2024/02/08 16:03:55;;;;;;;0.10;0.10;;;;;;;;;;4968328;28;20058;-83
2024/02/08 16:11:50;;;;;;;0.10;0.10;;;;;;;;;;4991748;28;20038;-84
2024/02/08 16:14:16;;;;;;;0.10;0.10;;;;;;;;;;4960111;28;20137;-85
2024/02/08 16:17:05;;;;;;;0.10;0.10;;;;;;;;;;4959993;28;20038;-85
2024/02/08 16:19:43;;;;;;;0.17;0.17;;;;;;;;;;4960201;28;20133;-85
2024/02/08 16:22:24;;;;;;;0.10;0.10;;;;;;;;;;4972741;28;20055;-85
2024/02/08 16:24:52;;;;;;;0.17;0.17;;;;;;;;;;4981318;28;20512;-87
2024/02/08 16:27:19;;;;;;;0.20;0.20;;;;;;;;;;4959707;28;20050;-84
2024/02/08 16:29:58;;;;;;;0.20;0.20;;;;;;;;;;4975464;28;20061;-83
2024/02/08 16:32:33;;;;;;;0.10;0.10;;;;;;;;;;4961369;28;20149;-84
2024/02/08 16:35:14;;;;;;;0.10;0.10;;;;;;;;;;4960475;28;20375;-85
2024/02/08 16:37:51;;;;;;;0.10;0.10;;;;;;;;;;4991861;28;20373;-84
2024/02/08 16:40:28;;;;;;;0.25;0.15;;;;;;;;;;4975629;28;20041;-84
2024/02/08 16:43:20;;;;;;;0.10;0.10;;;;;;;;;;4991216;28;20049;-86
2024/02/08 16:46:05;;;;;;;0.10;0.10;;;;;;;;;;4995549;28;20042;-85
2024/02/08 16:48:36;;;;;;;0.10;0.10;;;;;;;;;;4975872;28;20053;-85
2024/02/08 16:51:10;;;;;;;0.10;0.10;;;;;;;;;;4991624;28;20042;-86
2024/02/08 16:53:43;;;;;;;0.10;0.10;;;;;;;;;;4991648;28;20077;-86
2024/02/08 16:56:12;;;;;;;0.10;0.10;;;;;;;;;;4995229;28;20057;-88
2024/02/08 16:58:43;;;;;;;0.20;0.20;;;;;;;;;;4992820;28;20043;-89
2024/02/08 17:01:18;;;;;;;0.10;0.10;;;;;;;;;;4975322;28;20514;-86
2024/02/08 17:04:00;;;;;;;0.10;0.10;;;;;;;;;;4975329;28;20434;-87
2024/02/08 17:06:27;;;;;;;0.10;0.10;;;;;;;;;;4991420;28;20398;-87
2024/02/08 17:11:41;;;;;;;0.40;0.30;;;;;;;;;;4991502;28;20046;-86
2024/02/08 17:17:13;;;;;;;0.10;0.10;;;;;;;;;;4970922;28;20077;-87
2024/02/08 17:19:57;;;;;;;0.15;0.15;;;;;;;;;;4991452;28;20041;-87
2024/02/08 17:31:02;;;;;;;0.10;0.10;;;;;;;;;;4978422;28;20043;-86
2024/02/08 17:33:30;;;;;;;0.10;0.10;;;;;;;;;;4962471;28;20042;-86
2024/02/08 17:36:00;;;;;;;0.10;0.10;;;;;;;;;;4959774;28;20038;-86
2024/02/08 17:38:29;;;;;;;1.08;0.98;;;;;;;;;;4975326;28;20525;-86
2024/02/08 17:40:55;;;;;;;2.65;0.28;;;;;;;;;;4960509;28;20096;-87
2024/02/08 17:43:23;;;;;;;0.15;0.15;;;;;;;;;;4963130;28;20092;-87
2024/02/08 17:45:56;;;;;;;0.10;0.10;;;;;;;;;;4962889;28;20125;-87